Time;durP1;ratioP1;P1;durP2;ratioP2;P2;SDS_P1;SDS_P2;PMS_P1;PMS_P2;Temp;Humidity;BMP_temperature;BMP_pressure;BME280_temperature;BME280_humidity;BME280_pressure;Samples;Min_cycle;Max_cycle;Signal;HPM_P1;HPM_P2
2022/02/02 00:01:48;;;;;;;;;2.50;2.50;;;;;;;;5056134;28;10045;-76
2022/02/02 00:04:20;;;;;;;;;2.00;2.00;;;;;;;;5059694;28;10005;-76
2022/02/02 00:07:00;;;;;;;;;2.00;2.00;;;;;;;;5053712;28;10109;-77
2022/02/02 00:09:28;;;;;;;;;4.00;2.00;;;;;;;;5057128;28;10008;-77
2022/02/02 00:12:16;;;;;;;;;2.50;1.00;;;;;;;;5061017;28;10958;-78
2022/02/02 00:14:54;;;;;;;;;2.75;2.75;;;;;;;;5061212;28;10409;-78
2022/02/02 00:17:36;;;;;;;;;5.00;2.00;;;;;;;;5061078;28;10240;-78
2022/02/02 00:20:14;;;;;;;;;2.00;2.00;;;;;;;;5057028;28;10105;-78
2022/02/02 00:22:45;;;;;;;;;4.25;2.75;;;;;;;;5060158;28;9948;-78
2022/02/02 00:25:17;;;;;;;;;4.50;4.50;;;;;;;;5050825;28;10057;-78
2022/02/02 00:27:50;;;;;;;;;1.00;1.00;;;;;;;;5062568;28;10088;-78
2022/02/02 00:30:20;;;;;;;;;6.00;3.00;;;;;;;;5058409;28;9937;-79
2022/02/02 00:33:03;;;;;;;;;3.00;2.00;;;;;;;;5045240;28;10136;-77
2022/02/02 00:35:35;;;;;;;;;4.50;4.00;;;;;;;;5045061;28;9960;-78
2022/02/02 00:38:03;;;;;;;;;2.25;2.25;;;;;;;;5044212;28;10050;-78
2022/02/02 00:40:31;;;;;;;;;3.00;3.00;;;;;;;;5043526;28;10025;-78
2022/02/02 00:42:58;;;;;;;;;6.25;4.00;;;;;;;;5040365;28;10195;-78
2022/02/02 00:45:31;;;;;;;;;4.50;2.25;;;;;;;;5044738;28;10104;-78
2022/02/02 00:48:01;;;;;;;;;2.00;2.00;;;;;;;;5045067;28;10256;-78
2022/02/02 00:50:28;;;;;;;;;2.00;2.00;;;;;;;;5045886;28;10150;-76
2022/02/02 00:52:56;;;;;;;;;4.00;2.50;;;;;;;;5044688;28;10956;-77
2022/02/02 00:55:25;;;;;;;;;2.00;2.00;;;;;;;;5044567;28;10255;-77
2022/02/02 00:57:52;;;;;;;;;3.00;3.00;;;;;;;;5044591;28;10133;-76
2022/02/02 01:00:20;;;;;;;;;2.25;2.25;;;;;;;;5075462;28;10224;-76
2022/02/02 01:02:48;;;;;;;;;5.00;5.00;;;;;;;;5045159;28;10217;-75
2022/02/02 01:05:15;;;;;;;;;8.00;8.00;;;;;;;;5043104;28;10195;-77
2022/02/02 01:08:08;;;;;;;;;6.25;2.25;;;;;;;;5045489;28;10338;-77
2022/02/02 01:10:41;;;;;;;;;2.25;2.25;;;;;;;;5044754;28;10170;-77
2022/02/02 01:13:24;;;;;;;;;2.50;1.75;;;;;;;;5044983;28;11021;-77
2022/02/02 01:18:36;;;;;;;;;2.00;2.00;;;;;;;;5037190;28;11003;-78
2022/02/02 01:21:06;;;;;;;;;3.00;1.50;;;;;;;;5044412;28;10103;-77
2022/02/02 01:29:05;;;;;;;;;3.00;2.00;;;;;;;;5044035;28;10952;-77
2022/02/02 01:31:32;;;;;;;;;1.00;1.00;;;;;;;;5042095;28;10264;-77
2022/02/02 01:34:00;;;;;;;;;5.00;2.25;;;;;;;;5041799;28;10243;-76
2022/02/02 01:36:27;;;;;;;;;1.50;1.50;;;;;;;;5043536;28;10240;-77
2022/02/02 01:38:55;;;;;;;;;2.00;2.00;;;;;;;;5044113;28;10250;-77
2022/02/02 01:41:30;;;;;;;;;3.50;2.25;;;;;;;;5043293;28;10375;-77
2022/02/02 01:44:18;;;;;;;;;2.00;0.00;;;;;;;;5042650;28;10392;-77
2022/02/02 01:46:47;;;;;;;;;2.25;2.25;;;;;;;;5043843;28;10258;-76
2022/02/02 01:52:19;;;;;;;;;2.00;2.00;;;;;;;;5044828;28;10188;-76
2022/02/02 01:54:55;;;;;;;;;1.00;1.00;;;;;;;;5043540;28;10352;-76
2022/02/02 01:57:50;;;;;;;;;2.00;2.00;;;;;;;;5040043;28;10323;-76
2022/02/02 02:00:17;;;;;;;;;2.00;2.00;;;;;;;;5044386;28;10279;-77
2022/02/02 02:02:45;;;;;;;;;4.25;2.00;;;;;;;;5043529;28;10360;-76
2022/02/02 02:05:12;;;;;;;;;1.75;1.75;;;;;;;;5041576;28;10388;-77
2022/02/02 02:07:40;;;;;;;;;2.00;1.25;;;;;;;;5041016;28;10347;-76
2022/02/02 02:10:07;;;;;;;;;5.00;2.00;;;;;;;;5037627;28;10408;-76
2022/02/02 02:12:46;;;;;;;;;0.75;0.00;;;;;;;;5044276;28;10511;-76
2022/02/02 02:15:15;;;;;;;;;1.75;1.75;;;;;;;;5050679;28;10270;-77
2022/02/02 02:17:43;;;;;;;;;2.25;2.25;;;;;;;;5048538;28;10373;-77
2022/02/02 02:20:12;;;;;;;;;2.25;1.75;;;;;;;;5038771;28;10279;-77
2022/02/02 02:22:42;;;;;;;;;1.00;1.00;;;;;;;;5043590;28;10095;-77
2022/02/02 02:25:10;;;;;;;;;1.00;1.00;;;;;;;;5049386;28;9935;-76
2022/02/02 02:27:38;;;;;;;;;3.50;1.00;;;;;;;;5042058;28;10108;-76
2022/02/02 02:30:12;;;;;;;;;1.50;1.50;;;;;;;;5043542;28;9978;-76
2022/02/02 02:38:40;;;;;;;;;1.00;1.00;;;;;;;;5043483;28;9994;-77
2022/02/02 02:57:42;;;;;;;;;6.50;3.00;;;;;;;;5037557;28;9755;-76
2022/02/02 03:00:36;;;;;;;;;1.00;1.00;;;;;;;;5032705;28;9959;-76
2022/02/02 03:13:57;;;;;;;;;2.25;1.00;;;;;;;;5031975;28;9852;-77
2022/02/02 03:31:23;;;;;;;;;2.50;1.00;;;;;;;;5055893;28;10472;-75
2022/02/02 03:56:16;;;;;;;;;2.00;2.00;;;;;;;;5058438;28;9719;-76
2022/02/02 03:58:43;;;;;;;;;2.00;2.00;;;;;;;;5062478;28;9897;-77
2022/02/02 04:01:21;;;;;;;;;1.00;1.00;;;;;;;;5047865;28;9743;-76
2022/02/02 04:04:11;;;;;;;;;3.50;2.00;;;;;;;;5041568;28;9627;-77
2022/02/02 04:06:54;;;;;;;;;2.75;1.25;;;;;;;;5045818;28;9865;-77
2022/02/02 04:09:21;;;;;;;;;3.00;2.00;;;;;;;;5046712;28;9773;-77
2022/02/02 04:11:56;;;;;;;;;2.00;2.00;;;;;;;;5045161;28;9979;-77
2022/02/02 04:56:16;;;;;;;;;1.00;1.00;;;;;;;;5041310;28;9929;-76
2022/02/02 04:58:53;;;;;;;;;1.75;1.75;;;;;;;;5049784;28;10055;-76
2022/02/02 05:04:34;;;;;;;;;1.00;1.00;;;;;;;;5008493;28;9983;-76
2022/02/02 05:07:05;;;;;;;;;1.50;1.50;;;;;;;;5043728;28;9958;-77
2022/02/02 05:09:43;;;;;;;;;2.00;2.00;;;;;;;;5042587;28;9859;-77
2022/02/02 05:18:09;;;;;;;;;1.00;1.00;;;;;;;;5043463;28;10222;-77
2022/02/02 05:21:03;;;;;;;;;2.00;2.00;;;;;;;;5041010;28;10059;-75
2022/02/02 05:43:27;;;;;;;;;1.75;1.75;;;;;;;;5036259;28;10021;-76
2022/02/02 05:51:19;;;;;;;;;3.00;2.00;;;;;;;;5072412;28;10419;-75
2022/02/02 05:53:47;;;;;;;;;2.75;2.75;;;;;;;;5043399;28;9848;-75
2022/02/02 05:56:16;;;;;;;;;6.00;1.00;;;;;;;;5043739;28;9967;-78
2022/02/02 05:58:46;;;;;;;;;2.00;0.75;;;;;;;;5044523;28;9792;-76
2022/02/02 06:01:14;;;;;;;;;2.00;1.00;;;;;;;;5043372;28;9751;-76
2022/02/02 06:03:51;;;;;;;;;1.75;1.75;;;;;;;;5041496;28;9875;-76
2022/02/02 06:06:20;;;;;;;;;3.00;2.00;;;;;;;;5039905;28;9635;-75
2022/02/02 06:08:49;;;;;;;;;3.00;1.75;;;;;;;;5043728;28;9810;-76
2022/02/02 06:11:19;;;;;;;;;3.00;3.00;;;;;;;;5043007;28;9956;-75
2022/02/02 06:13:52;;;;;;;;;1.00;1.00;;;;;;;;5043774;28;9790;-75
2022/02/02 06:16:21;;;;;;;;;3.75;2.50;;;;;;;;5043581;28;9780;-74
2022/02/02 06:18:54;;;;;;;;;4.50;2.00;;;;;;;;5038809;28;10034;-76
2022/02/02 06:21:27;;;;;;;;;7.50;1.00;;;;;;;;5031458;28;9714;-75
2022/02/02 06:24:00;;;;;;;;;4.50;2.00;;;;;;;;5044058;28;9800;-75
2022/02/02 06:26:29;;;;;;;;;2.25;2.25;;;;;;;;5042121;28;9725;-74
2022/02/02 06:28:58;;;;;;;;;2.00;1.00;;;;;;;;5042982;28;9852;-80
2022/02/02 06:31:28;;;;;;;;;3.00;3.00;;;;;;;;5042165;28;9547;-76
2022/02/02 06:33:58;;;;;;;;;1.00;1.00;;;;;;;;5043440;28;9728;-79
2022/02/02 06:36:29;;;;;;;;;1.25;1.25;;;;;;;;5041953;28;9710;-80
2022/02/02 06:38:56;;;;;;;;;1.25;1.00;;;;;;;;5034746;28;9714;-79
2022/02/02 06:41:25;;;;;;;;;2.25;2.25;;;;;;;;5039751;28;9619;-80
2022/02/02 06:43:55;;;;;;;;;1.25;1.25;;;;;;;;5043314;28;9666;-80
2022/02/02 06:46:23;;;;;;;;;1.75;1.75;;;;;;;;5043671;28;9753;-80
2022/02/02 06:48:51;;;;;;;;;2.25;1.75;;;;;;;;5042778;28;10461;-80
2022/02/02 06:51:27;;;;;;;;;1.00;1.00;;;;;;;;5042964;28;9949;-79
2022/02/02 06:54:01;;;;;;;;;1.75;1.75;;;;;;;;5041077;28;9624;-80
2022/02/02 06:56:42;;;;;;;;;1.00;1.00;;;;;;;;5040591;28;10363;-79
2022/02/02 06:59:24;;;;;;;;;1.25;1.25;;;;;;;;5043330;28;9674;-79
2022/02/02 07:02:10;;;;;;;;;3.25;0.75;;;;;;;;5040957;28;9796;-79
2022/02/02 07:05:08;;;;;;;;;1.00;1.00;;;;;;;;5043451;28;9716;-79
2022/02/02 07:07:54;;;;;;;;;2.75;2.00;;;;;;;;5041315;28;9685;-79
2022/02/02 07:10:30;;;;;;;;;5.00;3.00;;;;;;;;5040742;28;10344;-80
2022/02/02 07:13:14;;;;;;;;;2.00;2.00;;;;;;;;5041085;28;9825;-80
2022/02/02 07:15:58;;;;;;;;;3.00;3.00;;;;;;;;5040714;28;9650;-80
2022/02/02 07:18:34;;;;;;;;;3.00;3.00;;;;;;;;5040800;28;9626;-81
2022/02/02 07:21:17;;;;;;;;;2.25;2.25;;;;;;;;5043194;28;9677;-80
2022/02/02 07:24:01;;;;;;;;;1.50;1.50;;;;;;;;5040710;28;9775;-89
2022/02/02 07:26:50;;;;;;;;;4.50;1.25;;;;;;;;5036542;28;9705;-83
2022/02/02 07:29:24;;;;;;;;;2.00;2.00;;;;;;;;5039494;28;9702;-79
2022/02/02 07:32:05;;;;;;;;;1.00;1.00;;;;;;;;5021271;28;9637;-82
2022/02/02 07:34:47;;;;;;;;;1.75;1.75;;;;;;;;5039118;28;9620;-81
2022/02/02 07:37:22;;;;;;;;;2.25;2.00;;;;;;;;5037753;28;9713;-78
2022/02/02 07:39:50;;;;;;;;;4.50;2.50;;;;;;;;5039938;28;9693;-80
2022/02/02 07:42:21;;;;;;;;;1.75;1.50;;;;;;;;5041576;28;10418;-80
2022/02/02 07:44:51;;;;;;;;;2.00;2.00;;;;;;;;5042969;28;9711;-79
2022/02/02 07:47:20;;;;;;;;;2.25;1.75;;;;;;;;5044444;28;10436;-79
2022/02/02 07:49:53;;;;;;;;;2.00;2.00;;;;;;;;5044581;28;9589;-80
2022/02/02 07:52:22;;;;;;;;;1.75;1.75;;;;;;;;5045691;28;10344;-79
2022/02/02 07:54:51;;;;;;;;;2.00;2.00;;;;;;;;5044162;28;9750;-80
2022/02/02 07:57:25;;;;;;;;;2.00;2.00;;;;;;;;5043518;28;9647;-80
2022/02/02 07:59:55;;;;;;;;;1.75;1.75;;;;;;;;5046261;28;10405;-75
2022/02/02 08:02:33;;;;;;;;;2.00;1.00;;;;;;;;5043556;28;9667;-78
2022/02/02 08:05:02;;;;;;;;;1.75;1.75;;;;;;;;5044581;28;9491;-80
2022/02/02 08:07:35;;;;;;;;;2.00;2.00;;;;;;;;5045341;28;9533;-79
2022/02/02 08:10:11;;;;;;;;;3.75;2.75;;;;;;;;5047152;28;9586;-79
2022/02/02 08:12:46;;;;;;;;;3.75;2.00;;;;;;;;5046790;28;9673;-79
2022/02/02 08:15:14;;;;;;;;;1.50;1.50;;;;;;;;5045219;28;9569;-85
2022/02/02 08:17:44;;;;;;;;;8.00;3.00;;;;;;;;5042837;28;10206;-86
2022/02/02 08:20:12;;;;;;;;;3.00;3.00;;;;;;;;5041130;28;9561;-87
2022/02/02 08:22:40;;;;;;;;;2.00;2.00;;;;;;;;5046404;28;9671;-82
2022/02/02 08:25:09;;;;;;;;;2.00;2.00;;;;;;;;5044794;28;9762;-83
2022/02/02 08:27:40;;;;;;;;;2.50;2.50;;;;;;;;5046866;28;9805;-81
2022/02/02 08:30:10;;;;;;;;;2.00;2.00;;;;;;;;5042834;28;9793;-81
2022/02/02 08:32:45;;;;;;;;;2.25;2.25;;;;;;;;5045196;28;9747;-79
2022/02/02 08:35:14;;;;;;;;;2.50;2.25;;;;;;;;5045396;28;9874;-83
2022/02/02 08:37:46;;;;;;;;;3.00;2.00;;;;;;;;5045132;28;9628;-80
2022/02/02 08:40:25;;;;;;;;;4.00;2.50;;;;;;;;5046036;28;9673;-82
2022/02/02 08:42:53;;;;;;;;;6.75;2.50;;;;;;;;5046053;28;9752;-85
2022/02/02 08:45:24;;;;;;;;;3.00;3.00;;;;;;;;5042414;28;9740;-79
2022/02/02 08:47:56;;;;;;;;;2.25;2.25;;;;;;;;5045123;28;9690;-81
2022/02/02 08:50:35;;;;;;;;;1.75;1.75;;;;;;;;5044452;28;9491;-79
2022/02/02 08:53:12;;;;;;;;;2.00;2.00;;;;;;;;5044556;28;9636;-82
2022/02/02 08:58:35;;;;;;;;;2.00;2.00;;;;;;;;5043743;28;9587;-82
2022/02/02 09:01:06;;;;;;;;;2.75;2.75;;;;;;;;5044563;28;9587;-86
2022/02/02 09:06:19;;;;;;;;;6.00;4.00;;;;;;;;5044718;28;9511;-83
2022/02/02 09:08:49;;;;;;;;;2.75;1.00;;;;;;;;5044281;28;10451;-81
2022/02/02 09:25:21;;;;;;;;;2.00;1.00;;;;;;;;5030170;28;9370;-83
2022/02/02 09:33:51;;;;;;;;;2.00;1.67;;;;;;;;5045729;28;9274;-84
2022/02/02 09:36:21;;;;;;;;;0.00;0.00;;;;;;;;5046810;28;10109;-85
2022/02/02 09:38:51;;;;;;;;;1.00;1.00;;;;;;;;5045350;28;9176;-85
2022/02/02 09:41:35;;;;;;;;;2.33;1.67;;;;;;;;5040322;28;9404;-81
2022/02/02 09:44:05;;;;;;;;;0.67;0.67;;;;;;;;5044973;28;9344;-84
2022/02/02 09:46:41;;;;;;;;;1.00;1.00;;;;;;;;5044771;28;9308;-85
2022/02/02 09:49:14;;;;;;;;;2.00;2.00;;;;;;;;5044886;28;9353;-86
2022/02/02 09:51:46;;;;;;;;;2.67;1.00;;;;;;;;5041056;28;9434;-79
2022/02/02 09:54:20;;;;;;;;;1.00;1.00;;;;;;;;5039908;28;9326;-78
2022/02/02 10:02:59;;;;;;;;;3.00;1.25;;;;;;;;5040585;28;9366;-80
2022/02/02 10:05:31;;;;;;;;;0.00;0.00;;;;;;;;5040533;28;9481;-77
2022/02/02 10:08:35;;;;;;;;;1.50;1.25;;;;;;;;5043857;28;9416;-79
2022/02/02 10:11:19;;;;;;;;;0.00;0.00;;;;;;;;5044624;28;9408;-77
2022/02/02 10:14:13;;;;;;;;;1.00;1.00;;;;;;;;5042101;28;9548;-78
2022/02/02 10:16:44;;;;;;;;;0.25;0.25;;;;;;;;5075687;28;9702;-76
2022/02/02 10:19:16;;;;;;;;;1.00;1.00;;;;;;;;5043862;28;9391;-79
2022/02/02 10:21:44;;;;;;;;;0.00;0.00;;;;;;;;5040489;28;10525;-80
2022/02/02 10:24:11;;;;;;;;;0.50;0.50;;;;;;;;5044488;28;9440;-76
2022/02/02 10:26:47;;;;;;;;;1.00;1.00;;;;;;;;5040011;28;9567;-76
2022/02/02 10:29:16;;;;;;;;;1.00;1.00;;;;;;;;5044271;28;9567;-80
2022/02/02 10:31:46;;;;;;;;;1.00;1.00;;;;;;;;5042815;28;9535;-78
2022/02/02 10:34:15;;;;;;;;;1.00;1.00;;;;;;;;5043589;28;9403;-79
2022/02/02 10:36:43;;;;;;;;;1.50;1.00;;;;;;;;5043576;28;9596;-78
2022/02/02 10:39:14;;;;;;;;;0.00;0.00;;;;;;;;5042852;28;9513;-80
2022/02/02 10:41:46;;;;;;;;;1.00;1.00;;;;;;;;5043981;28;9395;-77
2022/02/02 10:44:21;;;;;;;;;0.00;0.00;;;;;;;;5042775;28;9251;-79
2022/02/02 10:46:57;;;;;;;;;2.00;0.00;;;;;;;;5043324;28;9358;-76
2022/02/02 10:49:32;;;;;;;;;1.00;1.00;;;;;;;;5043922;28;9230;-77
2022/02/02 10:52:06;;;;;;;;;3.33;1.00;;;;;;;;5040781;28;10155;-78
2022/02/02 10:54:39;;;;;;;;;2.00;2.00;;;;;;;;5041649;28;9412;-80
2022/02/02 10:57:13;;;;;;;;;1.00;1.00;;;;;;;;5039310;28;9447;-80
2022/02/02 11:08:01;;;;;;;;;1.00;1.00;;;;;;;;5043080;28;9393;-76
2022/02/02 11:10:30;;;;;;;;;3.00;1.25;;;;;;;;5041478;28;9531;-78
2022/02/02 11:12:59;;;;;;;;;0.33;0.33;;;;;;;;5043087;28;9607;-77
2022/02/02 11:15:46;;;;;;;;;2.00;2.00;;;;;;;;5041608;28;9483;-81
2022/02/02 11:18:20;;;;;;;;;1.00;1.00;;;;;;;;5037509;28;10279;-79
2022/02/02 11:20:48;;;;;;;;;1.00;1.00;;;;;;;;5043026;28;9342;-77
2022/02/02 11:23:16;;;;;;;;;1.00;1.00;;;;;;;;5041954;28;9493;-79
2022/02/02 11:25:50;;;;;;;;;1.00;1.00;;;;;;;;5043727;28;9397;-81
2022/02/02 11:28:28;;;;;;;;;2.75;2.00;;;;;;;;5040044;28;9428;-82
2022/02/02 11:31:14;;;;;;;;;0.25;0.25;;;;;;;;5039053;28;9504;-82
2022/02/02 11:34:00;;;;;;;;;1.67;1.00;;;;;;;;5042874;28;9489;-78
2022/02/02 11:36:31;;;;;;;;;1.00;1.00;;;;;;;;5041617;28;9347;-78
2022/02/02 11:39:00;;;;;;;;;2.00;1.00;;;;;;;;5043337;28;9508;-76
2022/02/02 11:41:52;;;;;;;;;0.00;0.00;;;;;;;;5041088;28;9483;-77
2022/02/02 11:44:50;;;;;;;;;1.00;1.00;;;;;;;;5039854;28;9378;-78
2022/02/02 11:47:42;;;;;;;;;1.00;1.00;;;;;;;;5042637;28;9495;-84
2022/02/02 11:50:09;;;;;;;;;1.00;1.00;;;;;;;;5035997;28;9520;-79
2022/02/02 11:52:42;;;;;;;;;1.75;1.75;;;;;;;;5042874;28;9435;-84
2022/02/02 11:55:46;;;;;;;;;2.00;1.00;;;;;;;;5041517;28;9462;-79
2022/02/02 11:58:30;;;;;;;;;1.00;1.00;;;;;;;;5034266;28;9328;-83
2022/02/02 12:01:05;;;;;;;;;1.00;1.00;;;;;;;;5038793;28;9457;-84
2022/02/02 12:03:53;;;;;;;;;4.33;1.67;;;;;;;;5037381;28;9274;-81
2022/02/02 12:06:31;;;;;;;;;1.25;1.25;;;;;;;;5069255;28;9490;-78
2022/02/02 12:09:07;;;;;;;;;1.25;1.25;;;;;;;;5043226;28;9401;-82
2022/02/02 12:57:19;;;;;;;;;1.00;1.00;;;;;;;;5044290;28;9564;-79
2022/02/02 13:00:06;;;;;;;;;0.00;0.00;;;;;;;;5035985;28;10299;-80
2022/02/02 13:02:38;;;;;;;;;2.33;1.00;;;;;;;;5066211;28;9320;-80
2022/02/02 13:05:07;;;;;;;;;1.00;1.00;;;;;;;;5068406;28;9355;-83
2022/02/02 13:07:36;;;;;;;;;1.00;1.00;;;;;;;;5063654;28;9507;-80
2022/02/02 13:10:08;;;;;;;;;1.00;1.00;;;;;;;;5062073;28;9278;-84
2022/02/02 13:12:40;;;;;;;;;2.00;1.00;;;;;;;;5064442;28;9286;-81
2022/02/02 13:15:20;;;;;;;;;1.00;1.00;;;;;;;;5063610;28;9341;-81
2022/02/02 13:17:59;;;;;;;;;1.67;1.00;;;;;;;;5062870;28;10066;-79
2022/02/02 13:20:35;;;;;;;;;2.00;0.00;;;;;;;;5064175;28;9121;-81
2022/02/02 13:23:05;;;;;;;;;1.33;0.00;;;;;;;;5064707;28;9094;-83
2022/02/02 13:25:35;;;;;;;;;0.33;0.33;;;;;;;;5062507;28;9040;-79
2022/02/02 13:28:05;;;;;;;;;1.67;1.00;;;;;;;;5064355;28;8965;-81
2022/02/02 13:30:37;;;;;;;;;2.00;0.00;;;;;;;;5061229;28;9712;-82
2022/02/02 13:33:35;;;;;;;;;1.33;0.00;;;;;;;;5063719;28;9730;-83
2022/02/02 13:36:14;;;;;;;;;0.00;0.00;;;;;;;;5055694;28;9100;-83
2022/02/02 13:39:09;;;;;;;;;0.00;0.00;;;;;;;;5061950;28;9038;-81
2022/02/02 13:44:47;;;;;;;;;0.67;0.00;;;;;;;;5061250;28;8995;-80
2022/02/02 13:47:54;;;;;;;;;2.00;1.00;;;;;;;;5058429;28;9028;-84
2022/02/02 13:53:39;;;;;;;;;1.33;0.00;;;;;;;;5035053;28;9111;-82
2022/02/02 13:59:05;;;;;;;;;3.00;1.00;;;;;;;;5064297;28;9093;-83
2022/02/02 14:01:44;;;;;;;;;1.00;1.00;;;;;;;;5061587;28;9028;-82
2022/02/02 14:04:19;;;;;;;;;0.00;0.00;;;;;;;;5061641;28;9232;-83
2022/02/02 14:06:54;;;;;;;;;0.00;0.00;;;;;;;;5062340;28;9600;-83
2022/02/02 14:09:30;;;;;;;;;1.00;1.00;;;;;;;;5058627;28;8953;-83
2022/02/02 14:31:23;;;;;;;;;0.33;0.33;;;;;;;;5057178;28;8951;-84
2022/02/02 14:33:53;;;;;;;;;0.00;0.00;;;;;;;;5059923;28;8957;-84
2022/02/02 14:36:23;;;;;;;;;1.00;1.00;;;;;;;;5061197;28;8942;-85
2022/02/02 14:38:55;;;;;;;;;1.00;1.00;;;;;;;;5060724;28;9030;-85
2022/02/02 14:41:31;;;;;;;;;1.00;0.00;;;;;;;;5060696;28;9270;-83
2022/02/02 14:44:03;;;;;;;;;0.33;0.33;;;;;;;;5069132;28;9171;-84
2022/02/02 14:46:37;;;;;;;;;1.00;1.00;;;;;;;;5061870;28;9135;-84
2022/02/02 14:49:09;;;;;;;;;1.00;1.00;;;;;;;;5061978;28;9204;-85
2022/02/02 14:51:48;;;;;;;;;0.67;0.67;;;;;;;;5056648;28;9159;-85
2022/02/02 15:06:24;;;;;;;;;0.67;0.67;;;;;;;;5061407;28;9000;-84
2022/02/02 15:28:20;;;;;;;;;0.00;0.00;;;;;;;;5018864;28;9110;-83
2022/02/02 15:30:53;;;;;;;;;2.00;0.00;;;;;;;;5040226;28;8976;-84
2022/02/02 15:33:25;;;;;;;;;1.00;1.00;;;;;;;;5058311;28;9227;-85
2022/02/02 15:36:06;;;;;;;;;1.33;1.33;;;;;;;;5056660;28;9123;-82
2022/02/02 15:38:35;;;;;;;;;1.00;1.00;;;;;;;;5061800;28;8924;-82
2022/02/02 15:41:07;;;;;;;;;1.00;1.00;;;;;;;;5059264;28;9017;-83
2022/02/02 15:43:42;;;;;;;;;1.00;0.67;;;;;;;;5059980;28;8968;-84
2022/02/02 15:54:54;;;;;;;;;0.25;0.25;;;;;;;;5060989;28;8850;-88
2022/02/02 16:01:02;;;;;;;;;1.00;1.00;;;;;;;;5055958;28;8921;-80
2022/02/02 16:03:25;;;;;;;;;1.00;1.00;;;;;;;;5059853;28;8855;-81
2022/02/02 16:05:58;;;;;;;;;0.00;0.00;;;;;;;;5063556;28;9121;-81
2022/02/02 16:08:28;;;;;;;;;0.75;0.75;;;;;;;;5065860;28;8855;-86
2022/02/02 16:11:15;;;;;;;;;0.50;0.50;;;;;;;;5063834;28;9660;-83
2022/02/02 16:13:46;;;;;;;;;1.00;1.00;;;;;;;;5060367;28;8847;-79
2022/02/02 16:16:26;;;;;;;;;3.25;2.00;;;;;;;;5057133;28;9658;-80
2022/02/02 16:18:58;;;;;;;;;2.50;1.75;;;;;;;;5064064;28;8872;-83
2022/02/02 16:38:26;;;;;;;;;2.00;2.00;;;;;;;;5054211;28;8940;-88
2022/02/02 16:40:57;;;;;;;;;2.75;2.75;;;;;;;;5063070;28;9005;-80
2022/02/02 16:43:23;;;;;;;;;4.00;4.00;;;;;;;;5065401;28;8858;-81
2022/02/02 16:45:53;;;;;;;;;8.33;6.33;;;;;;;;5063208;28;9032;-81
2022/02/02 16:48:21;;;;;;;;;3.00;3.00;;;;;;;;5058883;28;9194;-84
2022/02/02 16:50:51;;;;;;;;;6.00;6.00;;;;;;;;5061388;28;9064;-86
2022/02/02 16:53:33;;;;;;;;;3.67;3.67;;;;;;;;5063582;28;9090;-87
2022/02/02 16:56:08;;;;;;;;;6.00;6.00;;;;;;;;5062790;28;9024;-83
2022/02/02 17:32:04;;;;;;;;;3.00;3.00;;;;;;;;5050035;28;9447;-86
2022/02/02 17:34:38;;;;;;;;;2.67;2.67;;;;;;;;5042878;28;10403;-75
2022/02/02 17:37:21;;;;;;;;;6.00;6.00;;;;;;;;5036180;28;10010;-75
2022/02/02 17:39:58;;;;;;;;;8.75;8.00;;;;;;;;5040263;28;9389;-75
2022/02/02 17:42:58;;;;;;;;;5.50;5.50;;;;;;;;5041103;28;9621;-77
2022/02/02 17:57:25;;;;;;;;;11.50;9.25;;;;;;;;5044272;28;9860;-73
2022/02/02 18:19:30;;;;;;;;;13.25;11.50;;;;;;;;5025371;28;9900;-76
2022/02/02 18:21:59;;;;;;;;;11.00;11.00;;;;;;;;5042362;28;9924;-75
2022/02/02 18:24:32;;;;;;;;;12.25;7.75;;;;;;;;5042500;28;9721;-76
2022/02/02 18:27:04;;;;;;;;;12.75;10.25;;;;;;;;5041413;28;10719;-74
2022/02/02 18:29:40;;;;;;;;;12.75;12.75;;;;;;;;5039869;28;9901;-78
2022/02/02 18:32:18;;;;;;;;;11.25;11.25;;;;;;;;5038144;28;9750;-77
2022/02/02 18:34:51;;;;;;;;;12.00;9.50;;;;;;;;5040521;28;10710;-77
2022/02/02 18:38:06;;;;;;;;;13.25;11.50;;;;;;;;5041956;28;10591;-75
2022/02/02 18:48:33;;;;;;;;;12.00;12.00;;;;;;;;5040257;28;9976;-75
2022/02/02 18:51:43;;;;;;;;;12.00;12.00;;;;;;;;5037601;28;9871;-75
2022/02/02 18:54:21;;;;;;;;;10.25;9.00;;;;;;;;5032362;28;9831;-78
2022/02/02 19:02:22;;;;;;;;;9.25;8.50;;;;;;;;5028768;28;9744;-76
2022/02/02 19:05:11;;;;;;;;;11.75;9.00;;;;;;;;5024469;28;9805;-80
2022/02/02 19:08:00;;;;;;;;;8.25;8.25;;;;;;;;5039873;28;9710;-76
2022/02/02 19:38:51;;;;;;;;;6.25;6.25;;;;;;;;5042277;28;9677;-77
2022/02/02 20:06:35;;;;;;;;;8.00;8.00;;;;;;;;5045277;28;9942;-76
2022/02/02 20:11:51;;;;;;;;;7.50;7.50;;;;;;;;5033468;28;9827;-76
2022/02/02 20:14:19;;;;;;;;;8.00;7.75;;;;;;;;5044661;28;9783;-76
2022/02/02 20:16:48;;;;;;;;;6.50;4.00;;;;;;;;5047009;28;9804;-77
2022/02/02 20:19:15;;;;;;;;;7.50;7.50;;;;;;;;5046821;28;9800;-76
2022/02/02 20:21:51;;;;;;;;;6.75;6.75;;;;;;;;5048315;28;9949;-76
2022/02/02 20:24:22;;;;;;;;;7.00;7.00;;;;;;;;5046000;28;9833;-77
2022/02/02 20:26:50;;;;;;;;;12.75;10.25;;;;;;;;5048926;28;9866;-76
2022/02/02 20:29:19;;;;;;;;;8.50;8.50;;;;;;;;5046494;28;9940;-76
2022/02/02 20:31:46;;;;;;;;;11.00;8.50;;;;;;;;5045350;28;10055;-76
2022/02/02 20:34:14;;;;;;;;;7.75;7.75;;;;;;;;5050388;28;10020;-76
2022/02/02 20:36:41;;;;;;;;;8.00;8.00;;;;;;;;5046700;28;10059;-76
2022/02/02 20:39:18;;;;;;;;;10.00;10.00;;;;;;;;5047679;28;9970;-76
2022/02/02 20:41:46;;;;;;;;;7.75;7.00;;;;;;;;5045453;28;9717;-76
2022/02/02 20:44:22;;;;;;;;;10.00;10.00;;;;;;;;5047458;28;10825;-76
2022/02/02 20:47:17;;;;;;;;;8.75;8.25;;;;;;;;5045478;28;9943;-77
2022/02/02 21:04:02;;;;;;;;;2.75;2.75;;;;;;;;5039249;28;9682;-76
2022/02/02 21:06:41;;;;;;;;;2.00;2.00;;;;;;;;5039550;28;9685;-76
2022/02/02 21:09:10;;;;;;;;;1.75;1.75;;;;;;;;5045587;28;9914;-77
2022/02/02 21:14:22;;;;;;;;;0.00;0.00;;;;;;;;5046521;28;9830;-78
2022/02/02 21:16:49;;;;;;;;;2.50;1.00;;;;;;;;5042721;28;9707;-77
2022/02/02 21:19:32;;;;;;;;;3.00;2.00;;;;;;;;5041858;28;9707;-76
2022/02/02 21:22:01;;;;;;;;;2.00;2.00;;;;;;;;5042134;28;9809;-76
2022/02/02 21:24:47;;;;;;;;;1.25;1.25;;;;;;;;5043933;28;10663;-76
2022/02/02 21:27:23;;;;;;;;;1.00;0.00;;;;;;;;5033399;28;9794;-76
2022/02/02 21:29:50;;;;;;;;;4.75;2.25;;;;;;;;5044501;28;9619;-76
2022/02/02 21:32:19;;;;;;;;;2.75;2.75;;;;;;;;5031851;28;9726;-76
2022/02/02 21:34:51;;;;;;;;;2.00;2.00;;;;;;;;5039880;28;10544;-77
2022/02/02 21:37:19;;;;;;;;;3.00;3.00;;;;;;;;5028503;28;9890;-75
2022/02/02 21:39:55;;;;;;;;;4.50;3.00;;;;;;;;5037976;28;10416;-77
2022/02/02 21:42:23;;;;;;;;;4.00;4.00;;;;;;;;5043581;28;9868;-77
2022/02/02 21:44:50;;;;;;;;;4.75;3.00;;;;;;;;5043838;28;9795;-76
2022/02/02 21:47:17;;;;;;;;;5.00;2.75;;;;;;;;5043245;28;9860;-79
2022/02/02 21:49:45;;;;;;;;;3.00;3.00;;;;;;;;5044645;28;9705;-77
2022/02/02 21:52:17;;;;;;;;;3.00;3.00;;;;;;;;5045178;28;10557;-77
2022/02/02 21:54:44;;;;;;;;;2.25;2.25;;;;;;;;5042676;28;9891;-79
2022/02/02 21:57:12;;;;;;;;;3.75;3.75;;;;;;;;5041856;28;9659;-78
2022/02/02 21:59:39;;;;;;;;;5.00;3.00;;;;;;;;5041857;28;9775;-76
2022/02/02 22:02:06;;;;;;;;;2.75;2.75;;;;;;;;5043851;28;9505;-78
2022/02/02 22:04:34;;;;;;;;;6.00;3.00;;;;;;;;5042139;28;9550;-77
2022/02/02 22:07:01;;;;;;;;;3.00;3.00;;;;;;;;5044220;28;9662;-77
2022/02/02 22:09:30;;;;;;;;;5.00;3.25;;;;;;;;5035684;28;9639;-79
2022/02/02 22:11:57;;;;;;;;;4.00;4.00;;;;;;;;5043791;28;9564;-77
2022/02/02 22:14:25;;;;;;;;;3.00;3.00;;;;;;;;5040170;28;9564;-80
2022/02/02 22:16:55;;;;;;;;;6.00;4.00;;;;;;;;5043321;28;9654;-79
2022/02/02 22:19:23;;;;;;;;;5.50;5.50;;;;;;;;5043245;28;9563;-77
2022/02/02 22:21:51;;;;;;;;;4.00;4.00;;;;;;;;5042671;28;9834;-77
2022/02/02 22:24:18;;;;;;;;;5.50;5.50;;;;;;;;5045367;28;9642;-77
2022/02/02 22:26:47;;;;;;;;;7.00;7.00;;;;;;;;5042350;28;9801;-78
2022/02/02 22:29:15;;;;;;;;;8.00;6.50;;;;;;;;5044191;28;9674;-77
2022/02/02 22:31:42;;;;;;;;;3.75;3.75;;;;;;;;5040628;28;9634;-78
2022/02/02 22:34:09;;;;;;;;;6.00;6.00;;;;;;;;5042918;28;9774;-79
2022/02/02 22:36:37;;;;;;;;;5.00;5.00;;;;;;;;5042777;28;9633;-77
2022/02/02 22:39:06;;;;;;;;;6.75;4.00;;;;;;;;5042936;28;9614;-75
2022/02/02 22:41:34;;;;;;;;;6.00;3.75;;;;;;;;5041928;28;9820;-81
2022/02/02 22:44:08;;;;;;;;;6.25;4.00;;;;;;;;5042476;28;9685;-76
2022/02/02 22:46:36;;;;;;;;;6.00;6.00;;;;;;;;5042521;28;9876;-81
2022/02/02 22:49:03;;;;;;;;;5.00;5.00;;;;;;;;5044136;28;10616;-82
2022/02/02 22:51:31;;;;;;;;;4.00;4.00;;;;;;;;5042973;28;10510;-79
2022/02/02 22:53:59;;;;;;;;;2.00;2.00;;;;;;;;5043588;28;9788;-78
2022/02/02 22:56:26;;;;;;;;;5.50;3.00;;;;;;;;5042399;28;9722;-77
2022/02/02 22:58:56;;;;;;;;;3.75;3.75;;;;;;;;5043696;28;9797;-78
2022/02/02 23:01:27;;;;;;;;;2.00;2.00;;;;;;;;5041773;28;9672;-79
2022/02/02 23:03:56;;;;;;;;;7.25;3.00;;;;;;;;5037665;28;9629;-77
2022/02/02 23:06:23;;;;;;;;;6.25;6.25;;;;;;;;5042683;28;9897;-76
2022/02/02 23:08:50;;;;;;;;;5.00;5.00;;;;;;;;5042656;28;9913;-78
2022/02/02 23:11:19;;;;;;;;;6.00;6.00;;;;;;;;5043486;28;10611;-78
2022/02/02 23:13:50;;;;;;;;;7.00;4.50;;;;;;;;5042474;28;10011;-77
2022/02/02 23:16:23;;;;;;;;;7.50;7.00;;;;;;;;5043668;28;10178;-78
2022/02/02 23:18:52;;;;;;;;;7.00;7.00;;;;;;;;5042260;28;10059;-77
2022/02/02 23:21:21;;;;;;;;;7.50;7.50;;;;;;;;5043293;28;10032;-77
2022/02/02 23:23:49;;;;;;;;;7.75;7.75;;;;;;;;5043633;28;10078;-77
2022/02/02 23:26:17;;;;;;;;;6.00;6.00;;;;;;;;5041941;28;10258;-77
2022/02/02 23:28:49;;;;;;;;;6.00;6.00;;;;;;;;5042778;28;10926;-77
2022/02/02 23:31:17;;;;;;;;;7.00;7.00;;;;;;;;5039621;28;9966;-77
2022/02/02 23:33:46;;;;;;;;;7.00;7.00;;;;;;;;5043482;28;10027;-77
2022/02/02 23:36:15;;;;;;;;;7.75;7.75;;;;;;;;5041901;28;10112;-77